sensor_id;sensor_type;location;lat;lon;timestamp;temperature;humidity
9265;DHT22;4669;49.594;10.958;2023-04-01T00:03:25;10.00;99.90
9265;DHT22;4669;49.594;10.958;2023-04-01T00:08:29;10.00;99.90
9265;DHT22;4669;49.594;10.958;2023-04-01T00:13:31;10.00;99.90
9265;DHT22;4669;49.594;10.958;2023-04-01T00:18:34;10.10;99.90
9265;DHT22;4669;49.594;10.958;2023-04-01T00:23:37;10.10;99.90
9265;DHT22;4669;49.594;10.958;2023-04-01T00:28:39;10.20;99.90
9265;DHT22;4669;49.594;10.958;2023-04-01T00:33:42;10.30;99.90
9265;DHT22;4669;49.594;10.958;2023-04-01T00:38:46;10.30;99.90
9265;DHT22;4669;49.594;10.958;2023-04-01T00:43:50;10.40;99.90
9265;DHT22;4669;49.594;10.958;2023-04-01T00:48:54;10.40;99.90
9265;DHT22;4669;49.594;10.958;2023-04-01T00:53:59;10.40;99.90
9265;DHT22;4669;49.594;10.958;2023-04-01T00:59:07;10.40;99.90
9265;DHT22;4669;49.594;10.958;2023-04-01T01:04:22;10.40;99.90
9265;DHT22;4669;49.594;10.958;2023-04-01T01:09:38;10.50;99.90
9265;DHT22;4669;49.594;10.958;2023-04-01T01:14:53;10.50;99.90
9265;DHT22;4669;49.594;10.958;2023-04-01T01:20:24;10.50;99.90
9265;DHT22;4669;49.594;10.958;2023-04-01T01:25:40;10.50;99.90
9265;DHT22;4669;49.594;10.958;2023-04-01T01:30:51;10.40;99.90
9265;DHT22;4669;49.594;10.958;2023-04-01T01:35:59;10.50;99.90
9265;DHT22;4669;49.594;10.958;2023-04-01T01:41:06;10.40;99.90
9265;DHT22;4669;49.594;10.958;2023-04-01T01:46:11;10.50;99.90
9265;DHT22;4669;49.594;10.958;2023-04-01T01:51:17;10.40;99.90
9265;DHT22;4669;49.594;10.958;2023-04-01T01:56:22;10.40;99.90
9265;DHT22;4669;49.594;10.958;2023-04-01T02:01:27;10.40;99.90
9265;DHT22;4669;49.594;10.958;2023-04-01T02:06:38;10.40;99.90
9265;DHT22;4669;49.594;10.958;2023-04-01T02:11:45;10.30;99.90
9265;DHT22;4669;49.594;10.958;2023-04-01T02:16:51;10.30;99.90
9265;DHT22;4669;49.594;10.958;2023-04-01T02:21:58;10.30;99.90
9265;DHT22;4669;49.594;10.958;2023-04-01T02:27:02;10.30;99.90
9265;DHT22;4669;49.594;10.958;2023-04-01T02:32:06;10.30;99.90
9265;DHT22;4669;49.594;10.958;2023-04-01T02:37:11;10.40;99.90
9265;DHT22;4669;49.594;10.958;2023-04-01T02:42:14;10.30;99.90
9265;DHT22;4669;49.594;10.958;2023-04-01T02:47:16;10.40;99.90
9265;DHT22;4669;49.594;10.958;2023-04-01T02:52:19;10.40;99.90
9265;DHT22;4669;49.594;10.958;2023-04-01T02:57:22;10.40;99.90
9265;DHT22;4669;49.594;10.958;2023-04-01T03:02:24;10.40;99.90
9265;DHT22;4669;49.594;10.958;2023-04-01T03:07:28;10.40;99.90
9265;DHT22;4669;49.594;10.958;2023-04-01T03:12:30;10.40;99.90
9265;DHT22;4669;49.594;10.958;2023-04-01T03:17:32;10.30;99.90
9265;DHT22;4669;49.594;10.958;2023-04-01T03:22:36;10.30;99.90
9265;DHT22;4669;49.594;10.958;2023-04-01T03:27:38;10.40;99.90
9265;DHT22;4669;49.594;10.958;2023-04-01T03:32:41;10.30;99.90
9265;DHT22;4669;49.594;10.958;2023-04-01T03:37:45;10.30;99.90
9265;DHT22;4669;49.594;10.958;2023-04-01T03:42:47;10.30;99.90
9265;DHT22;4669;49.594;10.958;2023-04-01T03:47:49;10.30;99.90
9265;DHT22;4669;49.594;10.958;2023-04-01T03:52:53;10.30;99.90
9265;DHT22;4669;49.594;10.958;2023-04-01T03:57:55;10.30;99.90
9265;DHT22;4669;49.594;10.958;2023-04-01T04:02:58;10.30;99.90
9265;DHT22;4669;49.594;10.958;2023-04-01T04:08:06;10.20;99.90
9265;DHT22;4669;49.594;10.958;2023-04-01T04:13:09;10.20;99.90
9265;DHT22;4669;49.594;10.958;2023-04-01T04:18:17;10.30;99.90
9265;DHT22;4669;49.594;10.958;2023-04-01T04:23:20;10.20;99.90
9265;DHT22;4669;49.594;10.958;2023-04-01T04:28:23;10.20;99.90
9265;DHT22;4669;49.594;10.958;2023-04-01T04:33:27;10.20;99.90
9265;DHT22;4669;49.594;10.958;2023-04-01T04:38:30;10.20;99.90
9265;DHT22;4669;49.594;10.958;2023-04-01T04:43:33;10.20;99.90
9265;DHT22;4669;49.594;10.958;2023-04-01T04:48:36;10.20;99.90
9265;DHT22;4669;49.594;10.958;2023-04-01T04:53:40;10.20;99.90
9265;DHT22;4669;49.594;10.958;2023-04-01T04:58:42;10.10;99.90
9265;DHT22;4669;49.594;10.958;2023-04-01T05:03:49;10.00;99.90
9265;DHT22;4669;49.594;10.958;2023-04-01T05:08:53;10.10;99.90
9265;DHT22;4669;49.594;10.958;2023-04-01T05:13:57;10.00;99.90
9265;DHT22;4669;49.594;10.958;2023-04-01T05:18:59;10.00;99.90
9265;DHT22;4669;49.594;10.958;2023-04-01T05:24:03;10.00;99.90
9265;DHT22;4669;49.594;10.958;2023-04-01T05:29:06;10.00;99.90
9265;DHT22;4669;49.594;10.958;2023-04-01T05:34:08;10.10;99.90
9265;DHT22;4669;49.594;10.958;2023-04-01T05:39:12;10.10;99.90
9265;DHT22;4669;49.594;10.958;2023-04-01T05:44:15;10.10;99.90
9265;DHT22;4669;49.594;10.958;2023-04-01T05:49:17;10.10;99.90
9265;DHT22;4669;49.594;10.958;2023-04-01T05:54:21;10.10;99.90
9265;DHT22;4669;49.594;10.958;2023-04-01T05:59:23;10.10;99.90
9265;DHT22;4669;49.594;10.958;2023-04-01T06:04:26;10.20;99.90
9265;DHT22;4669;49.594;10.958;2023-04-01T06:09:32;10.20;99.90
9265;DHT22;4669;49.594;10.958;2023-04-01T06:14:40;10.20;99.90
9265;DHT22;4669;49.594;10.958;2023-04-01T06:19:51;10.20;99.90
9265;DHT22;4669;49.594;10.958;2023-04-01T06:25:18;10.30;99.90
9265;DHT22;4669;49.594;10.958;2023-04-01T06:30:35;10.30;99.90
9265;DHT22;4669;49.594;10.958;2023-04-01T06:35:54;10.40;99.90
9265;DHT22;4669;49.594;10.958;2023-04-01T06:46:45;10.40;99.90
9265;DHT22;4669;49.594;10.958;2023-04-01T06:52:22;10.50;99.90
9265;DHT22;4669;49.594;10.958;2023-04-01T06:57:47;10.50;99.90
9265;DHT22;4669;49.594;10.958;2023-04-01T07:02:55;10.60;99.90
9265;DHT22;4669;49.594;10.958;2023-04-01T07:08:02;10.60;99.90
9265;DHT22;4669;49.594;10.958;2023-04-01T07:13:12;10.70;99.90
9265;DHT22;4669;49.594;10.958;2023-04-01T07:18:45;10.70;99.90
9265;DHT22;4669;49.594;10.958;2023-04-01T07:23:50;10.70;99.90
9265;DHT22;4669;49.594;10.958;2023-04-01T07:29:18;10.70;99.90
9265;DHT22;4669;49.594;10.958;2023-04-01T07:34:28;10.80;99.90
9265;DHT22;4669;49.594;10.958;2023-04-01T07:39:39;10.80;99.90
9265;DHT22;4669;49.594;10.958;2023-04-01T07:45:09;11.00;99.90
9265;DHT22;4669;49.594;10.958;2023-04-01T07:50:21;11.20;99.90
9265;DHT22;4669;49.594;10.958;2023-04-01T07:55:31;11.20;99.90
9265;DHT22;4669;49.594;10.958;2023-04-01T08:00:42;11.30;99.90
9265;DHT22;4669;49.594;10.958;2023-04-01T08:06:00;11.40;99.90
9265;DHT22;4669;49.594;10.958;2023-04-01T08:11:14;11.40;99.90
9265;DHT22;4669;49.594;10.958;2023-04-01T08:17:01;11.50;99.90
9265;DHT22;4669;49.594;10.958;2023-04-01T08:22:18;11.60;99.90
9265;DHT22;4669;49.594;10.958;2023-04-01T08:27:24;11.60;99.90
9265;DHT22;4669;49.594;10.958;2023-04-01T08:32:34;11.50;99.90
9265;DHT22;4669;49.594;10.958;2023-04-01T08:37:40;11.30;99.90
9265;DHT22;4669;49.594;10.958;2023-04-01T08:43:04;11.20;99.90
9265;DHT22;4669;49.594;10.958;2023-04-01T08:53:53;11.20;99.90
9265;DHT22;4669;49.594;10.958;2023-04-01T08:59:22;11.20;99.90
9265;DHT22;4669;49.594;10.958;2023-04-01T09:04:45;11.20;99.90
9265;DHT22;4669;49.594;10.958;2023-04-01T09:10:18;11.30;99.90
9265;DHT22;4669;49.594;10.958;2023-04-01T09:15:42;11.30;99.90
9265;DHT22;4669;49.594;10.958;2023-04-01T09:26:31;11.30;99.90
9265;DHT22;4669;49.594;10.958;2023-04-01T09:31:54;11.40;99.90
9265;DHT22;4669;49.594;10.958;2023-04-01T09:37:53;11.30;99.90
9265;DHT22;4669;49.594;10.958;2023-04-01T09:43:25;11.30;99.90
9265;DHT22;4669;49.594;10.958;2023-04-01T09:48:39;11.30;99.90
9265;DHT22;4669;49.594;10.958;2023-04-01T09:53:59;11.30;99.90
9265;DHT22;4669;49.594;10.958;2023-04-01T09:59:33;11.10;99.90
9265;DHT22;4669;49.594;10.958;2023-04-01T10:05:23;11.10;99.90
9265;DHT22;4669;49.594;10.958;2023-04-01T10:10:56;11.00;99.90
9265;DHT22;4669;49.594;10.958;2023-04-01T10:16:21;10.90;99.90
9265;DHT22;4669;49.594;10.958;2023-04-01T10:33:51;11.00;99.90
9265;DHT22;4669;49.594;10.958;2023-04-01T10:39:33;11.00;99.90
9265;DHT22;4669;49.594;10.958;2023-04-01T10:45:49;10.80;99.90
9265;DHT22;4669;49.594;10.958;2023-04-01T10:51:33;10.90;99.90
9265;DHT22;4669;49.594;10.958;2023-04-01T10:56:49;10.80;99.90
9265;DHT22;4669;49.594;10.958;2023-04-01T11:08:23;10.80;99.90
9265;DHT22;4669;49.594;10.958;2023-04-01T11:13:53;10.90;99.90
9265;DHT22;4669;49.594;10.958;2023-04-01T11:24:57;10.80;99.90
9265;DHT22;4669;49.594;10.958;2023-04-01T11:30:33;10.80;99.90
9265;DHT22;4669;49.594;10.958;2023-04-01T11:36:01;10.90;99.90
9265;DHT22;4669;49.594;10.958;2023-04-01T11:41:19;10.90;99.90
9265;DHT22;4669;49.594;10.958;2023-04-01T11:46:57;10.90;99.90
9265;DHT22;4669;49.594;10.958;2023-04-01T11:52:13;10.90;99.90
9265;DHT22;4669;49.594;10.958;2023-04-01T12:02:55;10.90;99.90
9265;DHT22;4669;49.594;10.958;2023-04-01T12:08:18;10.90;99.90
9265;DHT22;4669;49.594;10.958;2023-04-01T12:13:35;10.90;99.90
9265;DHT22;4669;49.594;10.958;2023-04-01T12:18:41;10.90;99.90
9265;DHT22;4669;49.594;10.958;2023-04-01T12:24:19;10.90;99.90
9265;DHT22;4669;49.594;10.958;2023-04-01T12:29:49;11.00;99.90
9265;DHT22;4669;49.594;10.958;2023-04-01T12:35:17;11.00;99.90
9265;DHT22;4669;49.594;10.958;2023-04-01T12:40:39;11.00;99.90
9265;DHT22;4669;49.594;10.958;2023-04-01T12:45:47;10.80;99.90
9265;DHT22;4669;49.594;10.958;2023-04-01T12:51:20;10.80;99.90
9265;DHT22;4669;49.594;10.958;2023-04-01T12:56:32;10.90;99.90
9265;DHT22;4669;49.594;10.958;2023-04-01T13:02:08;10.80;99.90
9265;DHT22;4669;49.594;10.958;2023-04-01T13:07:23;10.80;99.90
9265;DHT22;4669;49.594;10.958;2023-04-01T13:12:49;10.90;99.90
9265;DHT22;4669;49.594;10.958;2023-04-01T13:18:07;10.90;99.90
9265;DHT22;4669;49.594;10.958;2023-04-01T13:23:29;10.90;99.90
9265;DHT22;4669;49.594;10.958;2023-04-01T13:28:38;10.80;99.90
9265;DHT22;4669;49.594;10.958;2023-04-01T13:33:47;10.80;99.90
9265;DHT22;4669;49.594;10.958;2023-04-01T13:39:06;10.90;99.90
9265;DHT22;4669;49.594;10.958;2023-04-01T13:44:12;10.80;99.90
9265;DHT22;4669;49.594;10.958;2023-04-01T13:55:04;10.90;99.90
9265;DHT22;4669;49.594;10.958;2023-04-01T14:00:23;10.80;99.90
9265;DHT22;4669;49.594;10.958;2023-04-01T14:11:07;10.90;99.90
9265;DHT22;4669;49.594;10.958;2023-04-01T14:16:25;10.80;99.90
9265;DHT22;4669;49.594;10.958;2023-04-01T14:21:40;10.80;99.90
9265;DHT22;4669;49.594;10.958;2023-04-01T14:27:04;10.80;99.90
9265;DHT22;4669;49.594;10.958;2023-04-01T14:32:15;10.80;99.90
9265;DHT22;4669;49.594;10.958;2023-04-01T14:37:58;10.90;99.90
9265;DHT22;4669;49.594;10.958;2023-04-01T14:49:01;10.80;99.90
9265;DHT22;4669;49.594;10.958;2023-04-01T14:54:12;10.80;99.90
9265;DHT22;4669;49.594;10.958;2023-04-01T14:59:27;10.80;99.90
9265;DHT22;4669;49.594;10.958;2023-04-01T15:04:50;10.70;99.90
9265;DHT22;4669;49.594;10.958;2023-04-01T15:10:01;10.70;99.90
9265;DHT22;4669;49.594;10.958;2023-04-01T15:15:31;10.70;99.90
9265;DHT22;4669;49.594;10.958;2023-04-01T15:26:37;10.70;99.90
9265;DHT22;4669;49.594;10.958;2023-04-01T15:31:49;10.70;99.90
9265;DHT22;4669;49.594;10.958;2023-04-01T15:36:56;10.70;99.90
9265;DHT22;4669;49.594;10.958;2023-04-01T15:42:15;10.60;99.90
9265;DHT22;4669;49.594;10.958;2023-04-01T15:47:32;10.60;99.90
9265;DHT22;4669;49.594;10.958;2023-04-01T15:52:41;10.60;99.90
9265;DHT22;4669;49.594;10.958;2023-04-01T15:57:56;10.60;99.90
9265;DHT22;4669;49.594;10.958;2023-04-01T16:03:22;10.60;99.90
9265;DHT22;4669;49.594;10.958;2023-04-01T16:09:01;10.60;99.90
9265;DHT22;4669;49.594;10.958;2023-04-01T16:14:16;10.50;99.90
9265;DHT22;4669;49.594;10.958;2023-04-01T16:19:32;10.50;99.90
9265;DHT22;4669;49.594;10.958;2023-04-01T16:24:43;10.40;99.90
9265;DHT22;4669;49.594;10.958;2023-04-01T16:29:51;10.40;99.90
9265;DHT22;4669;49.594;10.958;2023-04-01T16:35:25;10.40;99.90
9265;DHT22;4669;49.594;10.958;2023-04-01T16:40:41;10.40;99.90
9265;DHT22;4669;49.594;10.958;2023-04-01T16:45:55;10.30;99.90
9265;DHT22;4669;49.594;10.958;2023-04-01T16:51:00;10.30;99.90
9265;DHT22;4669;49.594;10.958;2023-04-01T16:56:13;10.30;99.90
9265;DHT22;4669;49.594;10.958;2023-04-01T17:01:26;10.30;99.90
9265;DHT22;4669;49.594;10.958;2023-04-01T17:06:36;10.20;99.90
9265;DHT22;4669;49.594;10.958;2023-04-01T17:11:51;10.20;99.90
9265;DHT22;4669;49.594;10.958;2023-04-01T17:17:09;10.20;99.90
9265;DHT22;4669;49.594;10.958;2023-04-01T17:22:25;10.20;99.90
9265;DHT22;4669;49.594;10.958;2023-04-01T17:27:40;10.20;99.90
9265;DHT22;4669;49.594;10.958;2023-04-01T17:38:54;10.10;99.90
9265;DHT22;4669;49.594;10.958;2023-04-01T17:44:04;10.10;99.90
9265;DHT22;4669;49.594;10.958;2023-04-01T17:49:21;10.10;99.90
9265;DHT22;4669;49.594;10.958;2023-04-01T17:54:31;10.10;99.90
9265;DHT22;4669;49.594;10.958;2023-04-01T17:59:38;10.10;99.90
9265;DHT22;4669;49.594;10.958;2023-04-01T18:05:02;10.10;99.90
9265;DHT22;4669;49.594;10.958;2023-04-01T18:10:20;10.10;99.90
9265;DHT22;4669;49.594;10.958;2023-04-01T18:15:29;10.10;99.90
9265;DHT22;4669;49.594;10.958;2023-04-01T18:20:46;10.10;99.90
9265;DHT22;4669;49.594;10.958;2023-04-01T18:26:04;10.10;99.90
9265;DHT22;4669;49.594;10.958;2023-04-01T18:31:12;10.10;99.90
9265;DHT22;4669;49.594;10.958;2023-04-01T18:36:21;10.30;99.90
9265;DHT22;4669;49.594;10.958;2023-04-01T18:41:32;10.20;99.90
9265;DHT22;4669;49.594;10.958;2023-04-01T18:46:41;10.10;99.90
9265;DHT22;4669;49.594;10.958;2023-04-01T18:51:50;10.20;99.90
9265;DHT22;4669;49.594;10.958;2023-04-01T18:57:04;10.10;99.90
9265;DHT22;4669;49.594;10.958;2023-04-01T19:02:20;10.10;99.90
9265;DHT22;4669;49.594;10.958;2023-04-01T19:07:44;10.10;99.90
9265;DHT22;4669;49.594;10.958;2023-04-01T19:12:54;10.10;99.90
9265;DHT22;4669;49.594;10.958;2023-04-01T19:18:30;10.00;99.90
9265;DHT22;4669;49.594;10.958;2023-04-01T19:23:58;10.00;99.90
9265;DHT22;4669;49.594;10.958;2023-04-01T19:29:16;10.00;99.90
9265;DHT22;4669;49.594;10.958;2023-04-01T19:34:28;10.00;99.90
9265;DHT22;4669;49.594;10.958;2023-04-01T19:39:47;10.00;99.90
9265;DHT22;4669;49.594;10.958;2023-04-01T19:45:00;10.00;99.90
9265;DHT22;4669;49.594;10.958;2023-04-01T19:50:20;10.00;99.90
9265;DHT22;4669;49.594;10.958;2023-04-01T19:55:34;10.10;99.90
9265;DHT22;4669;49.594;10.958;2023-04-01T20:00:43;10.00;99.90
9265;DHT22;4669;49.594;10.958;2023-04-01T20:06:00;10.10;99.90
9265;DHT22;4669;49.594;10.958;2023-04-01T20:11:18;10.10;99.90
9265;DHT22;4669;49.594;10.958;2023-04-01T20:16:43;10.00;99.90
9265;DHT22;4669;49.594;10.958;2023-04-01T20:21:47;10.10;99.90
9265;DHT22;4669;49.594;10.958;2023-04-01T20:27:00;10.10;99.90
9265;DHT22;4669;49.594;10.958;2023-04-01T20:32:14;10.10;99.90
9265;DHT22;4669;49.594;10.958;2023-04-01T20:37:33;10.10;99.90
9265;DHT22;4669;49.594;10.958;2023-04-01T20:43:10;10.10;99.90
9265;DHT22;4669;49.594;10.958;2023-04-01T20:48:45;10.00;99.90
9265;DHT22;4669;49.594;10.958;2023-04-01T20:53:53;10.00;99.90
9265;DHT22;4669;49.594;10.958;2023-04-01T20:59:08;10.00;99.90
9265;DHT22;4669;49.594;10.958;2023-04-01T21:04:27;10.00;99.90
9265;DHT22;4669;49.594;10.958;2023-04-01T21:09:41;10.00;99.90
9265;DHT22;4669;49.594;10.958;2023-04-01T21:20:28;10.00;99.90
9265;DHT22;4669;49.594;10.958;2023-04-01T21:25:47;9.90;99.90
9265;DHT22;4669;49.594;10.958;2023-04-01T21:36:57;9.90;99.90
9265;DHT22;4669;49.594;10.958;2023-04-01T21:42:17;9.90;99.90
9265;DHT22;4669;49.594;10.958;2023-04-01T21:53:40;9.80;99.90
9265;DHT22;4669;49.594;10.958;2023-04-01T21:59:25;9.80;99.90
9265;DHT22;4669;49.594;10.958;2023-04-01T22:04:50;9.80;99.90
9265;DHT22;4669;49.594;10.958;2023-04-01T22:10:03;9.80;99.90
9265;DHT22;4669;49.594;10.958;2023-04-01T22:15:14;9.80;99.90
9265;DHT22;4669;49.594;10.958;2023-04-01T22:20:25;9.80;99.90
9265;DHT22;4669;49.594;10.958;2023-04-01T22:25:38;9.80;99.90
9265;DHT22;4669;49.594;10.958;2023-04-01T22:30:46;9.80;99.90
9265;DHT22;4669;49.594;10.958;2023-04-01T22:35:55;9.80;99.90
9265;DHT22;4669;49.594;10.958;2023-04-01T22:41:05;9.70;99.90
9265;DHT22;4669;49.594;10.958;2023-04-01T22:46:29;9.70;99.90
9265;DHT22;4669;49.594;10.958;2023-04-01T22:51:41;9.70;99.90
9265;DHT22;4669;49.594;10.958;2023-04-01T22:56:51;9.80;99.90
9265;DHT22;4669;49.594;10.958;2023-04-01T23:01:57;9.70;99.90
9265;DHT22;4669;49.594;10.958;2023-04-01T23:07:03;9.70;99.90
9265;DHT22;4669;49.594;10.958;2023-04-01T23:12:11;9.70;99.90
9265;DHT22;4669;49.594;10.958;2023-04-01T23:17:25;9.80;99.90
9265;DHT22;4669;49.594;10.958;2023-04-01T23:22:34;9.70;99.90
9265;DHT22;4669;49.594;10.958;2023-04-01T23:27:43;9.70;99.90
9265;DHT22;4669;49.594;10.958;2023-04-01T23:32:47;9.70;99.90
9265;DHT22;4669;49.594;10.958;2023-04-01T23:37:49;9.70;99.90
9265;DHT22;4669;49.594;10.958;2023-04-01T23:42:53;9.70;99.90
9265;DHT22;4669;49.594;10.958;2023-04-01T23:47:55;9.70;99.90
9265;DHT22;4669;49.594;10.958;2023-04-01T23:53:01;9.70;99.90
9265;DHT22;4669;49.594;10.958;2023-04-01T23:58:13;9.70;99.90
